Time;durP1;ratioP1;P1;durP2;ratioP2;P2;SDS_P1;SDS_P2;PMS_P1;PMS_P2;Temp;Humidity;BMP_temperature;BMP_pressure;BME280_temperature;BME280_humidity;BME280_pressure;Samples;Min_cycle;Max_cycle;Signal;HPM_P1;HPM_P2
2024/04/03 00:07:00;;;;;;;;;;;13.10;59.50;;;;;;20998149;28;19912;-59
2024/04/03 00:17:02;;;;;;;;;;;13.20;59.50;;;;;;20997969;28;19916;-57
2024/04/03 00:27:03;;;;;;;;;;;13.00;59.80;;;;;;20997264;28;19999;-58
2024/04/03 00:37:05;;;;;;;;;;;13.10;60.10;;;;;;20996125;28;19916;-58
2024/04/03 00:47:07;;;;;;;;;;;13.00;60.50;;;;;;20996100;28;19932;-59
2024/04/03 00:57:08;;;;;;;;;;;13.00;60.80;;;;;;20996634;28;19967;-57
2024/04/03 01:07:09;;;;;;;;;;;13.00;61.20;;;;;;20994878;28;19913;-57
2024/04/03 01:17:10;;;;;;;;;;;12.90;61.30;;;;;;20995836;28;19917;-58
2024/04/03 01:27:12;;;;;;;;;;;13.00;61.30;;;;;;20994545;28;19908;-57
2024/04/03 01:37:17;;;;;;;;;;;13.00;61.50;;;;;;21010153;28;19923;-58
2024/04/03 01:47:19;;;;;;;;;;;12.90;61.90;;;;;;21009099;28;20001;-57
2024/04/03 01:57:20;;;;;;;;;;;12.90;62.30;;;;;;21009804;28;20274;-58
2024/04/03 02:07:22;;;;;;;;;;;12.80;63.60;;;;;;21007675;28;19913;-58
2024/04/03 02:17:23;;;;;;;;;;;12.70;64.20;;;;;;21007090;28;19923;-57
2024/04/03 02:27:24;;;;;;;;;;;12.70;64.50;;;;;;21006183;28;19908;-58
2024/04/03 02:37:25;;;;;;;;;;;12.50;65.50;;;;;;21005596;28;19942;-59
2024/04/03 02:47:27;;;;;;;;;;;12.30;66.10;;;;;;21003920;28;19921;-58
2024/04/03 02:57:28;;;;;;;;;;;12.30;66.50;;;;;;21005187;28;19982;-57
2024/04/03 03:07:29;;;;;;;;;;;12.40;66.60;;;;;;21003365;28;19997;-57
2024/04/03 03:17:30;;;;;;;;;;;12.40;66.80;;;;;;21003482;28;20394;-58
2024/04/03 03:27:32;;;;;;;;;;;12.40;66.80;;;;;;21001510;28;20013;-58
2024/04/03 03:37:33;;;;;;;;;;;12.30;66.90;;;;;;21000614;28;20345;-58
2024/04/03 03:47:34;;;;;;;;;;;12.40;67.20;;;;;;21000090;28;19952;-58
2024/04/03 03:57:35;;;;;;;;;;;12.40;67.50;;;;;;20997938;28;19924;-58
2024/04/03 04:07:37;;;;;;;;;;;12.50;67.80;;;;;;20998152;28;19912;-58
2024/04/03 04:17:38;;;;;;;;;;;12.50;68.40;;;;;;20998462;28;20336;-58
2024/04/03 04:27:39;;;;;;;;;;;12.60;69.20;;;;;;20998099;28;19978;-57
2024/04/03 04:37:40;;;;;;;;;;;12.50;70.40;;;;;;20996353;28;19916;-58
2024/04/03 04:47:44;;;;;;;;;;;12.60;70.80;;;;;;20995650;28;19928;-59
2024/04/03 04:57:45;;;;;;;;;;;12.60;71.30;;;;;;20995328;28;19921;-58
2024/04/03 05:07:46;;;;;;;;;;;12.60;71.40;;;;;;20995595;28;20439;-58
2024/04/03 05:17:47;;;;;;;;;;;12.50;71.80;;;;;;20994446;28;19917;-59
2024/04/03 05:27:48;;;;;;;;;;;12.50;72.30;;;;;;20993970;28;19948;-58
2024/04/03 05:37:49;;;;;;;;;;;12.50;72.50;;;;;;20994633;28;19923;-57
2024/04/03 05:47:50;;;;;;;;;;;12.50;72.80;;;;;;20994162;28;19920;-58
2024/04/03 05:57:52;;;;;;;;;;;12.50;72.90;;;;;;20993620;28;20019;-57
2024/04/03 06:07:59;;;;;;;;;;;12.50;72.80;;;;;;20992751;28;19958;-57
2024/04/03 06:18:00;;;;;;;;;;;12.60;72.80;;;;;;20998099;28;19917;-57
2024/04/03 06:28:01;;;;;;;;;;;12.60;72.60;;;;;;21005441;28;19916;-59
2024/04/03 06:38:02;;;;;;;;;;;12.70;72.50;;;;;;21004680;28;19920;-58
2024/04/03 06:48:05;;;;;;;;;;;12.70;72.60;;;;;;21007051;28;19962;-58
2024/04/03 06:58:08;;;;;;;;;;;12.70;72.50;;;;;;21003900;28;20031;-61
2024/04/03 07:08:10;;;;;;;;;;;12.80;72.20;;;;;;21002094;28;19991;-58
2024/04/03 07:18:11;;;;;;;;;;;12.80;72.10;;;;;;21001627;28;19956;-58
2024/04/03 07:28:13;;;;;;;;;;;12.70;72.40;;;;;;21000819;28;19916;-56
2024/04/03 07:38:15;;;;;;;;;;;12.90;71.90;;;;;;20998663;28;19908;-59
2024/04/03 07:48:18;;;;;;;;;;;13.00;71.10;;;;;;20998773;28;20002;-58
2024/04/03 07:58:20;;;;;;;;;;;13.10;70.90;;;;;;20998776;28;20378;-57
2024/04/03 08:08:22;;;;;;;;;;;13.50;69.80;;;;;;20996748;28;19912;-56
2024/04/03 08:18:24;;;;;;;;;;;13.20;70.20;;;;;;20998103;28;19913;-57
2024/04/03 08:28:27;;;;;;;;;;;13.50;70.00;;;;;;20995368;28;19920;-57
2024/04/03 08:38:29;;;;;;;;;;;13.60;69.30;;;;;;20995435;28;19916;-59
2024/04/03 08:48:31;;;;;;;;;;;13.70;69.60;;;;;;20993687;28;19924;-56
2024/04/03 08:58:34;;;;;;;;;;;14.10;68.00;;;;;;20994189;28;19912;-58
2024/04/03 09:08:42;;;;;;;;;;;14.40;67.10;;;;;;20995459;28;20384;-59
2024/04/03 09:18:45;;;;;;;;;;;14.70;66.40;;;;;;20994876;28;20416;-57
2024/04/03 09:28:46;;;;;;;;;;;15.10;65.70;;;;;;20994001;28;20033;-55
2024/04/03 09:38:47;;;;;;;;;;;15.00;64.90;;;;;;20993380;28;20114;-58
2024/04/03 09:48:50;;;;;;;;;;;15.50;63.00;;;;;;20993113;28;19963;-57
2024/04/03 09:58:51;;;;;;;;;;;14.90;64.20;;;;;;21007349;28;19919;-58
2024/04/03 10:08:54;;;;;;;;;;;14.90;63.90;;;;;;21008404;28;19974;-60
2024/04/03 10:18:57;;;;;;;;;;;15.30;62.80;;;;;;21006369;28;19908;-60
2024/04/03 10:29:02;;;;;;;;;;;15.40;62.60;;;;;;21005570;28;19916;-59
2024/04/03 10:39:05;;;;;;;;;;;15.60;61.50;;;;;;21005225;28;19909;-60
2024/04/03 10:49:09;;;;;;;;;;;16.00;61.60;;;;;;20933987;28;19935;-61
2024/04/03 10:59:10;;;;;;;;;;;16.30;59.10;;;;;;20920945;28;19913;-59
2024/04/03 11:09:11;;;;;;;;;;;16.60;57.30;;;;;;20920695;28;20020;-60
2024/04/03 11:19:13;;;;;;;;;;;16.70;58.00;;;;;;20920319;28;20225;-61
2024/04/03 11:29:31;;;;;;;;;;;16.60;58.20;;;;;;20919802;28;20012;-60
2024/04/03 11:39:32;;;;;;;;;;;16.70;57.40;;;;;;20917640;28;19908;-60
2024/04/03 11:49:33;;;;;;;;;;;16.90;57.10;;;;;;20916742;28;19921;-59
2024/04/03 11:59:35;;;;;;;;;;;17.10;54.70;;;;;;20917689;28;20376;-58
2024/04/03 12:09:35;;;;;;;;;;;17.00;54.80;;;;;;20916616;28;19921;-59
2024/04/03 12:19:52;;;;;;;;;;;17.00;55.30;;;;;;20915306;28;19913;-59
2024/04/03 12:29:53;;;;;;;;;;;17.20;52.30;;;;;;20913773;28;19916;-60
2024/04/03 12:39:54;;;;;;;;;;;17.60;51.80;;;;;;20914289;28;20377;-60
2024/04/03 12:49:55;;;;;;;;;;;17.90;52.40;;;;;;20981938;28;19927;-60
2024/04/03 12:59:56;;;;;;;;;;;18.00;50.90;;;;;;20996247;28;19912;-61
2024/04/03 13:09:56;;;;;;;;;;;17.80;51.20;;;;;;20995835;28;19986;-59
2024/04/03 13:19:58;;;;;;;;;;;17.80;49.90;;;;;;20995218;28;19916;-59
2024/04/03 13:29:59;;;;;;;;;;;18.00;48.10;;;;;;21006710;28;19917;-59
2024/04/03 13:40:02;;;;;;;;;;;18.20;47.70;;;;;;21010265;28;19908;-59
2024/04/03 13:50:04;;;;;;;;;;;18.20;48.60;;;;;;20938916;28;19928;-60
2024/04/03 14:00:10;;;;;;;;;;;18.30;48.00;;;;;;20926877;28;19940;-59
2024/04/03 14:10:12;;;;;;;;;;;18.20;47.70;;;;;;20925986;28;20227;-60
2024/04/03 14:20:13;;;;;;;;;;;18.30;48.10;;;;;;20925186;28;19962;-60
2024/04/03 14:30:14;;;;;;;;;;;18.30;47.60;;;;;;20886691;28;19918;-57
2024/04/03 14:40:16;;;;;;;;;;;18.40;47.40;;;;;;20837715;28;19924;-60
2024/04/03 14:50:19;;;;;;;;;;;18.50;46.90;;;;;;20836765;28;20008;-58
2024/04/03 15:00:21;;;;;;;;;;;18.60;46.90;;;;;;20838453;28;19921;-58
2024/04/03 15:10:22;;;;;;;;;;;18.60;46.80;;;;;;20835104;28;19968;-59
2024/04/03 15:20:25;;;;;;;;;;;18.60;46.60;;;;;;20835603;28;19913;-58
2024/04/03 15:30:26;;;;;;;;;;;18.70;44.50;;;;;;20834944;28;20037;-58
2024/04/03 15:40:27;;;;;;;;;;;18.70;45.60;;;;;;20832875;28;19917;-60
2024/04/03 15:50:29;;;;;;;;;;;18.60;45.70;;;;;;20834158;28;20404;-58
2024/04/03 16:00:30;;;;;;;;;;;18.60;46.60;;;;;;20835092;28;19946;-59
2024/04/03 16:10:35;;;;;;;;;;;18.50;45.70;;;;;;20833833;28;20332;-60
2024/04/03 16:20:36;;;;;;;;;;;18.60;46.40;;;;;;20833857;28;19909;-59
2024/04/03 16:30:39;;;;;;;;;;;18.40;45.20;;;;;;20831256;28;20408;-60
2024/04/03 16:40:40;;;;;;;;;;;18.30;45.60;;;;;;20831865;28;20359;-59
2024/04/03 16:50:42;;;;;;;;;;;18.30;45.90;;;;;;20829654;28;19921;-60
2024/04/03 17:00:43;;;;;;;;;;;18.20;46.20;;;;;;20827770;28;20003;-59
2024/04/03 17:10:47;;;;;;;;;;;18.10;46.90;;;;;;20829963;28;20396;-56
2024/04/03 17:20:48;;;;;;;;;;;18.00;47.80;;;;;;20829131;28;19909;-57
2024/04/03 17:30:51;;;;;;;;;;;17.90;46.30;;;;;;20824412;28;19960;-60
2024/04/03 17:40:52;;;;;;;;;;;17.80;46.30;;;;;;20824182;28;20370;-59
2024/04/03 17:50:53;;;;;;;;;;;17.50;45.80;;;;;;20896114;28;19925;-60
2024/04/03 18:00:55;;;;;;;;;;;17.60;47.70;;;;;;20899235;28;19920;-60
2024/04/03 18:10:56;;;;;;;;;;;17.40;47.80;;;;;;20951334;28;19920;-56
2024/04/03 18:20:58;;;;;;;;;;;17.20;48.70;;;;;;21006317;28;20297;-57
2024/04/03 18:31:00;;;;;;;;;;;17.20;49.20;;;;;;21005038;28;20281;-55
2024/04/03 18:41:02;;;;;;;;;;;17.10;48.50;;;;;;21004833;28;19909;-54
2024/04/03 18:51:03;;;;;;;;;;;17.10;51.70;;;;;;21002308;28;20012;-54
2024/04/03 19:01:07;;;;;;;;;;;17.10;52.80;;;;;;21002166;28;19913;-54
2024/04/03 19:11:08;;;;;;;;;;;17.00;53.80;;;;;;21002687;28;20400;-56
2024/04/03 19:21:10;;;;;;;;;;;17.00;55.40;;;;;;21001390;28;19909;-58
2024/04/03 19:31:11;;;;;;;;;;;17.20;56.00;;;;;;21002270;28;20306;-58
2024/04/03 19:41:13;;;;;;;;;;;16.90;53.00;;;;;;20988948;28;19908;-60
2024/04/03 19:51:15;;;;;;;;;;;16.80;53.10;;;;;;20986635;28;20454;-59
2024/04/03 20:01:17;;;;;;;;;;;16.70;54.20;;;;;;20998786;28;19912;-59
2024/04/03 20:11:19;;;;;;;;;;;16.50;55.00;;;;;;20997779;28;19920;-59
2024/04/03 20:21:20;;;;;;;;;;;16.40;54.70;;;;;;20997470;28;19915;-59
2024/04/03 20:31:21;;;;;;;;;;;16.30;54.40;;;;;;20997865;28;20322;-60
2024/04/03 20:41:23;;;;;;;;;;;16.20;54.60;;;;;;20996781;28;19909;-59
2024/04/03 20:51:25;;;;;;;;;;;16.10;54.80;;;;;;20916458;28;19920;-59
2024/04/03 21:01:26;;;;;;;;;;;15.90;54.80;;;;;;20911934;28;19917;-60
2024/04/03 21:11:29;;;;;;;;;;;15.80;54.90;;;;;;20913026;28;20330;-59
2024/04/03 21:21:30;;;;;;;;;;;15.80;54.90;;;;;;20912791;28;19910;-59
2024/04/03 21:31:36;;;;;;;;;;;15.70;55.20;;;;;;20911182;28;19924;-58
2024/04/03 21:41:37;;;;;;;;;;;15.70;55.50;;;;;;20912160;28;19912;-60
2024/04/03 21:51:39;;;;;;;;;;;15.70;56.20;;;;;;21006752;28;20055;-59
2024/04/03 22:01:39;;;;;;;;;;;15.50;57.00;;;;;;21009867;28;20391;-59
2024/04/03 22:11:41;;;;;;;;;;;15.50;57.40;;;;;;21007667;28;19920;-59
2024/04/03 22:21:42;;;;;;;;;;;15.40;58.00;;;;;;21006999;28;19962;-59
2024/04/03 22:31:43;;;;;;;;;;;15.30;58.40;;;;;;21007525;28;19916;-59
2024/04/03 22:41:44;;;;;;;;;;;15.30;58.60;;;;;;21005417;28;19916;-58
2024/04/03 22:51:46;;;;;;;;;;;15.20;58.80;;;;;;21004831;28;20012;-59
2024/04/03 23:01:47;;;;;;;;;;;15.10;60.30;;;;;;21003319;28;19917;-58
2024/04/03 23:11:48;;;;;;;;;;;15.00;61.30;;;;;;21003311;28;19921;-59
2024/04/03 23:21:49;;;;;;;;;;;14.80;61.70;;;;;;21002344;28;19909;-59
2024/04/03 23:31:50;;;;;;;;;;;14.70;61.90;;;;;;21001532;28;19916;-59
2024/04/03 23:41:52;;;;;;;;;;;14.70;61.70;;;;;;21000578;28;19909;-58
2024/04/03 23:51:56;;;;;;;;;;;14.60;61.80;;;;;;20999871;28;19947;-58
